YSSY/SYD METAR and TAF weather

Enter ICAO airport designator
Station Type Date Time Source
YSSY METAR 2023/02/06 18:30 UTC NOAA

YSSY 061830Z 02004KT 9999 FEW016 SCT060 23/20 Q1015 RF00.0/000.0


Station Type Date Time Source
YSSY Decoded METAR 2023/02/06 18:30 UTC NOAA

Sydney Airport, Australia (YSSY) 33-57S 151-11E 3M
Feb 06, 2023 - 01:30 PM EST / 2023.02.06 1830 UTC
Wind: from the NNE (020 degrees) at 5 MPH (4 KT):0
Visibility: greater than 7 mile(s):0
Sky conditions: partly cloudy
Temperature: 73 F (23 C)
Dew Point: 68 F (20 C)
Relative Humidity: 83%
Pressure (altimeter): 29.97 in. Hg (1015 hPa)
ob: YSSY 061830Z 02004KT 9999 FEW016 SCT060 23/20 Q1015 RF00.0/000.0
cycle: 18

Station Type Date Time Source
YSSY TAF 2023/02/06 18:00 UTC NOAA

TAF YSSY 061703Z 0618/0800 29006KT 9999 BKN025
FM062300 15013KT 9999 -SHRA SCT020 BKN035
FM071000 13008KT 9999 NSW SCT025
FM071400 29006KT 9999 BKN025 INTER 0623/0706 4000 SHRA BKN015

Example: see airport list